Latest Weather Observations for Ferny Creek

IDV60801

Issued at 9:35 am EDT Saturday 29 November 2014 (issued every 30 minutes, with the page automatically refreshed every 10 minutes)

About weather observations | Map of weather stations | Latest weather observations for VIC | Other Formats
Station Details ID: 086266 Name: FERNY CREEK Lat: -37.87 Lon: 145.35 Height: 512.9 m
Data from the previous 72 hours. | See also: Recent months at Ferny Creek
Date/Time
EDT
Temp
°C
App
Temp
°C
Dew
Point
Rel
Hum
%
Delta-T
°C
Wind Press
QNH
hPa
Press
MSL
hPa
Rain
since 9 am
mm
Dir
 
Spd
km/h
Gust
km/h
Spd
kts
Gust
kts
29/09:30am 15.0 14.6 12.3 84 1.5 ENE 6 7 3 4 1017.4 1016.7 0.0
29/09:00am 13.3 13.8 12.8 97 0.3 ENE 2 4 1 2 1017.6 1016.9 0.0
29/08:30am 11.3 10.9 11.0 98 0.2 N 4 6 2 3 1017.8 1017.1 0.0
29/08:00am 10.4 10.0 9.9 97 0.3 E 2 4 1 2 1017.8 1017.1 0.0
29/07:30am 10.1 9.7 9.6 97 0.3 NW 2 6 1 3 1018.1 1017.4 0.0
29/07:00am 9.6 8.3 9.1 97 0.3 NW 6 9 3 5 1018.0 1017.3 0.0
29/06:30am 9.2 8.9 8.7 97 0.3 CALM 0 0 0 0 1017.6 1016.9 0.0
29/06:00am 9.2 8.9 8.7 97 0.3 CALM 0 0 0 0 1017.6 1016.9 0.0
29/05:30am 9.3 9.0 8.8 97 0.3 CALM 0 0 0 0 1017.5 1016.8 0.0
29/05:00am 9.0 8.7 8.6 97 0.2 CALM 0 0 0 0 1017.4 1016.7 0.0
29/04:30am 9.2 8.5 8.7 97 0.3 W 2 4 1 2 1017.2 1016.5 0.0
29/04:00am 8.8 8.4 8.2 96 0.3 CALM 0 4 0 2 1017.1 1016.4 0.0
29/03:30am 9.3 9.0 8.8 97 0.3 CALM 0 0 0 0 1017.4 1016.7 0.0
29/03:00am 9.4 8.4 8.9 97 0.3 WSW 4 7 2 4 1017.4 1016.7 0.0
29/02:30am 9.6 9.4 9.0 96 0.3 CALM 0 0 0 0 1017.4 1016.7 0.0
29/02:00am 9.6 9.4 9.0 96 0.3 CALM 0 0 0 0 1017.7 1017.0 0.0
29/01:30am 10.0 9.9 9.4 96 0.3 CALM 0 0 0 0 1017.9 1017.2 0.0
29/01:00am 10.2 10.1 9.6 96 0.3 CALM 0 0 0 0 1018.3 1017.7 0.0
29/12:30am 10.0 9.8 9.2 95 0.4 CALM 0 0 0 0 1018.9 1018.2 0.0
29/12:00am 10.0 9.8 9.1 94 0.5 CALM 0 0 0 0 1019.3 1018.6 0.0
 
Date/Time
EDT
Temp
°C
App
Temp
°C
Dew
Point
Rel
Hum
%
Delta-T
°C
Wind Press
QNH
hPa
Press
MSL
hPa
Rain
since 9 am
mm
Dir
 
Spd
km/h
Gust
km/h
Spd
kts
Gust
kts
28/11:30pm 10.7 10.7 9.8 94 0.5 CALM 0 2 0 1 1019.6 1018.9 0.0
28/11:00pm 10.5 9.7 9.7 95 0.4 E 4 7 2 4 1019.8 1019.1 0.0
28/10:30pm 10.1 9.1 9.0 93 0.6 E 4 7 2 4 1020.3 1019.7 0.0
28/10:00pm 10.4 8.9 9.3 93 0.6 SE 7 13 4 7 1020.5 1019.9 0.0
28/09:30pm 10.2 8.8 9.0 92 0.6 SE 6 13 3 7 1020.4 1019.8 0.0
28/09:00pm 10.4 8.9 9.0 91 0.7 SE 7 11 4 6 1020.3 1019.7 0.0
28/08:30pm 10.9 9.4 9.2 89 0.9 SE 7 13 4 7 1020.2 1019.6 0.0
28/08:00pm 12.3 11.2 10.0 86 1.2 SE 6 17 3 9 1020.1 1019.5 0.0
28/07:30pm 13.5 12.6 10.5 82 1.6 SE 6 13 3 7 1020.0 1019.4 0.0
28/07:00pm 14.5 13.6 10.5 77 2.1 SE 6 13 3 7 1019.8 1019.1 0.0
28/06:30pm 15.6 14.7 10.6 72 2.7 SE 6 11 3 6 1019.7 1019.0 0.0
28/06:00pm 16.1 15.0 10.6 70 3.0 ESE 7 15 4 8 1019.7 1019.0 0.0
28/05:30pm 17.4 16.2 10.3 63 3.9 SE 7 13 4 7 1019.9 1019.3 0.0
28/05:00pm 18.7 18.0 11.3 62 4.1 SE 6 9 3 5 1020.0 1019.4 0.0
28/04:30pm 18.1 17.3 11.0 63 3.9 ESE 6 13 3 7 1020.1 1019.5 0.0
28/04:00pm 18.8 18.3 12.1 65 3.8 SE 6 15 3 8 1020.5 1019.9 0.0
28/03:30pm 17.3 16.2 10.7 65 3.6 SE 7 17 4 9 1020.7 1020.1 0.0
28/03:00pm 17.2 16.3 11.2 68 3.3 SE 7 15 4 8 1021.2 1020.5 0.0
28/02:30pm 17.2 16.3 10.6 65 3.6 S 6 15 3 8 1021.5 1020.8 0.0
28/02:00pm 17.4 16.3 10.8 65 3.6 S 7 13 4 7 1021.8 1021.2 0.0
28/01:30pm 17.4 16.9 12.5 73 2.8 S 7 15 4 8 1022.1 1021.5 0.0
28/01:00pm 17.2 16.7 11.9 71 3.0 SSW 6 13 3 7 1022.3 1021.7 0.0
28/12:30pm 16.8 16.5 11.5 71 2.9 W 4 7 2 4 1022.5 1021.9 0.0
28/12:00pm 15.0 13.8 9.6 70 2.9 WNW 6 9 3 5 1022.6 1022.0 0.0
28/11:30am 14.6 14.2 11.0 79 2.0 E 4 9 2 5 1022.8 1022.2 0.0
28/11:00am 12.2 11.4 9.8 85 1.3 ENE 4 7 2 4 1023.2 1022.5 0.0
28/10:30am 10.1 9.6 9.5 96 0.3 E 2 7 1 4 1023.6 1023.0 0.0
28/10:00am 8.7 7.6 8.4 98 0.1 SE 4 7 2 4 1023.7 1023.1 0.0
28/09:30am 8.2 6.6 7.9 98 0.1 E 6 7 3 4 1023.9 1023.3 0.0
28/09:00am 8.1 6.5 7.8 98 0.1 E 6 9 3 5 1023.9 1023.3 0.0
28/08:30am 8.1 7.2 7.8 98 0.1 ESE 2 6 1 3 1024.0 1023.4 0.0
28/08:00am 7.8 6.5 7.5 98 0.1 E 4 6 2 3 1023.9 1023.3 0.0
28/07:30am 7.7 6.3 7.4 98 0.1 E 4 6 2 3 1023.5 1022.9 0.0
28/07:00am 7.8 6.1 7.5 98 0.1 ESE 6 9 3 5 1022.9 1022.3 0.0
28/06:30am 7.8 6.5 7.5 98 0.1 SE 4 9 2 5 1022.8 1022.2 0.0
28/06:00am 7.7 6.0 7.4 98 0.1 SE 6 13 3 7 1022.5 1021.9 0.0
28/05:30am 7.7 6.3 7.4 98 0.1 ESE 4 11 2 6 1022.1 1021.5 0.0
28/05:00am 7.6 5.8 7.2 97 0.2 ESE 6 11 3 6 1021.7 1021.1 0.0
28/04:30am 7.5 5.7 7.1 97 0.2 SE 6 15 3 8 1021.6 1021.0 0.0
28/04:00am 7.5 5.5 7.1 97 0.2 SE 7 22 4 12 1021.5 1020.8 0.0
28/03:30am 7.3 5.3 6.9 97 0.2 SE 7 17 4 9 1021.4 1020.7 0.0
28/03:00am 7.2 5.1 6.8 97 0.2 SE 7 11 4 6 1021.5 1020.8 0.0
28/02:30am 7.2 5.1 6.6 96 0.3 SE 7 15 4 8 1021.7 1021.1 0.0
28/02:00am 7.3 5.2 6.7 96 0.3 SE 7 15 4 8 1022.2 1021.6 0.0
28/01:30am 7.3 5.2 6.7 96 0.3 SE 7 15 4 8 1022.6 1022.0 0.0
28/01:00am 7.4 5.3 6.8 96 0.3 SE 7 15 4 8 1022.8 1022.2 0.0
28/12:30am 7.5 5.5 6.9 96 0.3 ESE 7 15 4 8 1023.3 1022.7 0.0
28/12:00am 7.3 5.2 6.6 95 0.3 ESE 7 13 4 7 1023.5 1022.9 0.0
 
Date/Time
EDT
Temp
°C
App
Temp
°C
Dew
Point
Rel
Hum
%
Delta-T
°C
Wind Press
QNH
hPa
Press
MSL
hPa
Rain
since 9 am
mm
Dir
 
Spd
km/h
Gust
km/h
Spd
kts
Gust
kts
27/11:30pm 7.5 5.4 6.6 94 0.4 ESE 7 15 4 8 1023.8 1023.2 0.0
27/11:00pm 7.6 5.7 6.7 94 0.4 ESE 6 9 3 5 1024.0 1023.4 0.0
27/10:30pm 7.9 5.9 7.0 94 0.4 ESE 7 19 4 10 1024.2 1023.6 0.0
27/10:00pm 8.1 6.1 7.0 93 0.5 ESE 7 17 4 9 1024.5 1023.9 0.0
27/09:30pm 8.1 6.1 6.9 92 0.6 SE 7 13 4 7 1024.2 1023.6 0.0
27/09:00pm 8.4 6.0 7.0 91 0.7 ESE 9 17 5 9 1023.9 1023.3 0.0
27/08:30pm 8.7 6.6 6.8 88 0.9 SE 7 17 4 9 1023.9 1023.3 0.0
27/08:00pm 9.5 7.5 7.1 85 1.2 SE 7 15 4 8 1023.9 1023.3 0.0
27/07:30pm 10.3 8.0 7.5 83 1.4 SE 9 20 5 11 1023.9 1023.3 0.0
27/07:00pm 11.2 9.3 7.7 79 1.7 SE 7 17 4 9 1023.9 1023.3 0.0
27/06:30pm 11.8 10.0 8.1 78 1.9 ESE 7 15 4 8 1023.9 1023.3 0.0
27/06:00pm 12.6 10.2 8.5 76 2.1 ESE 11 19 6 10 1023.8 1023.2 0.0
27/05:30pm 13.8 11.8 8.8 72 2.6 ESE 9 19 5 10 1023.8 1023.2 0.0
27/05:00pm 14.4 12.4 8.6 68 3.0 ESE 9 19 5 10 1023.7 1023.1 0.0
27/04:30pm 14.4 12.3 8.1 66 3.2 SE 9 20 5 11 1023.9 1023.3 0.0
27/04:00pm 14.4 12.3 8.4 67 3.1 SE 9 19 5 10 1024.1 1023.5 0.0
27/03:30pm 14.6 12.1 8.1 65 3.3 SE 11 19 6 10 1024.2 1023.6 0.0
27/03:00pm 15.1 13.0 8.3 64 3.5 SE 9 17 5 9 1024.4 1023.8 0.0
27/02:30pm 14.6 12.5 8.1 65 3.3 SE 9 19 5 10 1024.5 1023.9 0.0
27/02:00pm 15.1 13.4 9.9 71 2.8 ESE 9 19 5 10 1024.7 1024.1 0.0
27/01:30pm 13.9 11.6 7.4 65 3.3 ESE 9 20 5 11 1024.8 1024.2 0.0
27/01:00pm 14.1 12.4 8.5 69 2.9 SE 7 19 4 10 1025.0 1024.5 0.0
27/12:30pm 12.8 9.5 6.2 64 3.2 E 13 28 7 15 1025.2 1024.6 0.0
27/12:00pm 13.5 11.4 8.1 70 2.7 ESE 9 19 5 10 1025.3 1024.7 0.0
27/11:30am 12.7 10.4 7.4 70 2.7 E 9 19 5 10 1025.5 1024.9 0.0
27/11:00am 11.9 9.5 7.0 72 2.4 ESE 9 22 5 12 1025.7 1025.1 0.0
27/10:30am 11.4 9.5 6.5 72 2.4 SE 6 19 3 10 1025.7 1025.1 0.0
27/10:00am 10.3 8.0 5.7 73 2.2 ESE 7 15 4 8 1025.7 1025.1 0.0
27/09:30am 10.2 7.9 5.6 73 2.2 ESE 7 22 4 12 1025.6 1025.0 0.0
27/09:00am 9.8 7.6 6.0 77 1.8 ESE 7 15 4 8 1025.5 1024.9 2.8
27/08:30am 9.4 7.0 5.4 76 1.9 ESE 7 17 4 9 1025.5 1024.9 2.8
27/08:00am 9.3 7.0 5.7 78 1.7 ESE 7 13 4 7 1025.2 1024.6 2.8
27/07:30am 8.6 6.5 5.9 83 1.3 ESE 6 15 3 8 1024.8 1024.2 2.8
27/07:00am 8.2 6.0 5.5 83 1.2 ESE 6 9 3 5 1024.6 1024.0 2.8
27/06:30am 7.9 6.1 5.4 84 1.2 ESE 4 11 2 6 1024.4 1023.8 2.8
27/06:00am 7.8 6.0 5.3 84 1.1 ESE 4 7 2 4 1024.2 1023.6 2.8
27/05:30am 7.7 5.8 5.0 83 1.2 SE 4 9 2 5 1023.9 1023.3 2.8
27/05:00am 7.7 5.8 4.7 81 1.4 SE 4 9 2 5 1023.7 1023.1 2.8
27/04:30am 7.7 5.8 4.8 82 1.3 ESE 4 7 2 4 1023.4 1022.8 2.8
27/04:00am 7.5 5.5 4.6 82 1.3 ESE 4 7 2 4 1023.1 1022.4 2.8
27/03:30am 7.5 5.3 5.1 85 1.1 ESE 6 15 3 8 1023.1 1022.4 2.8
27/03:00am 7.7 5.8 5.0 83 1.2 ESE 4 9 2 5 1023.2 1022.5 2.8
27/02:30am 7.9 5.6 4.8 81 1.4 SE 6 9 3 5 1023.3 1022.7 2.8
27/02:00am 7.9 6.0 5.0 82 1.3 ESE 4 11 2 6 1023.5 1022.9 2.8
27/01:30am 7.8 6.0 5.3 84 1.1 ESE 4 9 2 5 1023.6 1023.0 2.8
27/01:00am 7.7 6.3 5.7 87 0.9 ESE 2 6 1 3 1023.9 1023.3 2.8
27/12:30am 7.6 6.2 5.4 86 1.0 ESE 2 6 1 3 1024.2 1023.6 2.8
27/12:00am 7.7 6.2 5.0 83 1.2 S 2 7 1 4 1024.3 1023.7 2.8
 
Date/Time
EDT
Temp
°C
App
Temp
°C
Dew
Point
Rel
Hum
%
Delta-T
°C
Wind Press
QNH
hPa
Press
MSL
hPa
Rain
since 9 am
mm
Dir
 
Spd
km/h
Gust
km/h
Spd
kts
Gust
kts
26/11:30pm 8.0 6.6 5.5 84 1.2 S 2 6 1 3 1024.2 1023.6 2.8
26/11:00pm 8.2 6.0 5.5 83 1.2 SSE 6 13 3 7 1024.2 1023.6 2.8
26/10:30pm 8.3 6.6 5.8 84 1.2 S 4 9 2 5 1024.2 1023.6 2.8
26/10:00pm 8.6 7.1 6.6 87 0.9 E 4 11 2 6 1024.1 1023.5 2.8
26/09:30pm 8.6 6.6 6.4 86 1.0 SSE 6 13 3 7 1023.8 1023.2 2.8
26/09:00pm 8.7 7.2 6.7 87 1.0 SSE 4 11 2 6 1023.5 1022.9 2.8
26/08:30pm 9.1 7.3 7.2 88 0.9 SE 6 11 3 6 1023.3 1022.7 2.8
26/08:00pm 9.2 7.9 7.6 90 0.8 SE 4 9 2 5 1023.2 1022.5 2.8
26/07:30pm 9.5 7.9 7.9 90 0.8 SE 6 15 3 8 1023.1 1022.4 2.8
26/07:00pm 9.7 8.2 8.5 92 0.6 SE 6 11 3 6 1022.8 1022.2 2.8
26/06:30pm 10.0 8.7 9.1 94 0.5 ESE 6 11 3 6 1022.4 1021.8 2.8
26/06:00pm 10.6 9.2 9.7 94 0.5 SSE 7 17 4 9 1022.1 1021.5 2.0
26/05:30pm 11.1 10.4 10.2 94 0.5 ESE 4 7 2 4 1022.0 1021.4 1.2
26/05:00pm 11.9 11.4 10.6 92 0.7 S 4 7 2 4 1022.0 1021.4 0.0
26/04:30pm 12.4 11.4 10.3 87 1.1 S 6 11 3 6 1022.0 1021.4 0.0
26/04:00pm 13.6 12.3 9.3 75 2.2 SSW 6 11 3 6 1022.0 1021.4 0.0
26/03:30pm 14.4 13.0 9.0 70 2.8 SW 6 15 3 8 1021.9 1021.3 0.0
26/03:00pm 14.9 13.8 8.6 66 3.3 WSW 4 9 2 5 1021.9 1021.3 0.0
26/02:30pm 14.4 12.9 8.6 68 3.0 SW 6 15 3 8 1022.1 1021.5 0.0
26/02:00pm 14.0 12.4 8.8 71 2.7 WSW 7 15 4 8 1022.0 1021.4 0.0
26/01:30pm 14.2 12.8 9.0 71 2.7 WSW 6 17 3 9 1022.0 1021.4 0.0
26/01:00pm 13.0 11.3 7.7 70 2.7 WSW 6 13 3 7 1022.1 1021.5 0.0
26/12:30pm 12.7 11.6 8.4 75 2.2 WSW 4 11 2 6 1022.1 1021.5 0.0
26/12:00pm 12.1 10.7 7.4 73 2.3 WSW 4 9 2 5 1021.9 1021.3 0.0
26/11:30am 12.3 11.5 8.0 75 2.2 W 2 6 1 3 1021.9 1021.3 0.0
26/11:00am 11.8 10.3 6.9 72 2.4 W 4 7 2 4 1021.8 1021.2 0.0
26/10:30am 11.8 10.6 8.1 78 1.9 W 4 6 2 3 1021.8 1021.2 0.0
26/10:00am 10.6 9.5 6.9 78 1.8 W 2 7 1 4 1021.8 1021.2 0.0

Other Formats:

Comma delimited format used in spreadsheet applications
http://www.bom.gov.au/fwo/IDV60801/IDV60801.94872.axf

JavaScript Object Notation format (JSON) in row-major order
http://www.bom.gov.au/fwo/IDV60801/IDV60801.94872.json